GLACB EGCB-ANY
Flight info
| Callsign | GLACB |
|---|---|
| Flight time | N/A |
| Altitude | 3000 |
| Route | EGCB |
| Aircraft | PA28/L-SDE2E3FGHIJ1RWXY/LB1 |
Departure
| Time | 2026-04-27 19:01 |
|---|---|
| Airport | Manchester Barton Aerodrome (EGCB) |
Arrival
| Time | N/A |
|---|---|
| Airport | ANY |
| Time | Latitude | Longitude | Altitude | Speed | Heading |
|---|---|---|---|---|---|
| 2026-04-27 18:56 | 53.47097 | -2.38804 | 75 ft | 0 kts | 37° |
| 2026-04-27 18:57 | 53.47110 | -2.38798 | 72 ft | 8 kts | 306° |
| 2026-04-27 18:57 | 53.47114 | -2.38895 | 74 ft | 10 kts | 265° |
| 2026-04-27 18:57 | 53.47102 | -2.39079 | 72 ft | 22 kts | 262° |
| 2026-04-27 18:58 | 53.47077 | -2.39385 | 71 ft | 25 kts | 278° |
| 2026-04-27 18:58 | 53.47124 | -2.39381 | 70 ft | 0 kts | 79° |
| 2026-04-27 19:01 | 53.47127 | -2.39343 | 66 ft | 21 kts | 85° |
| 2026-04-27 19:01 | 53.47163 | -2.38769 | 124 ft | 66 kts | 83° |
| 2026-04-27 19:01 | 53.47267 | -2.38052 | 453 ft | 67 kts | 50° |
| 2026-04-27 19:01 | 53.47712 | -2.38367 | 688 ft | 104 kts | 290° |
| 2026-04-27 19:02 | 53.47642 | -2.39775 | 731 ft | 133 kts | 258° |
| 2026-04-27 19:02 | 53.47421 | -2.41317 | 764 ft | 121 kts | 259° |
| 2026-04-27 19:02 | 53.46979 | -2.41937 | 574 ft | 80 kts | 139° |
| 2026-04-27 19:02 | 53.46973 | -2.41243 | 421 ft | 60 kts | 74° |
| 2026-04-27 19:03 | 53.47047 | -2.40480 | 293 ft | 71 kts | 82° |
| 2026-04-27 19:03 | 53.47111 | -2.39601 | 123 ft | 79 kts | 82° |
| 2026-04-27 19:03 | 53.47166 | -2.38832 | 92 ft | 55 kts | 83° |
| 2026-04-27 19:03 | 53.47196 | -2.38396 | 234 ft | 57 kts | 81° |
| 2026-04-27 19:04 | 53.47598 | -2.38385 | 554 ft | 86 kts | 302° |
| 2026-04-27 19:04 | 53.47460 | -2.39337 | 704 ft | 91 kts | 248° |
| 2026-04-27 19:04 | 53.47158 | -2.40185 | 588 ft | 77 kts | 202° |
| 2026-04-27 19:04 | 53.46834 | -2.39919 | 469 ft | 57 kts | 73° |
| 2026-04-27 19:05 | 53.47126 | -2.39247 | 70 ft | 83 kts | 87° |
| 2026-04-27 19:05 | 53.47182 | -2.38533 | 129 ft | 39 kts | 88° |
| 2026-04-27 19:05 | 53.47209 | -2.37977 | 227 ft | 56 kts | 70° |
| 2026-04-27 19:05 | 53.47402 | -2.37379 | 469 ft | 66 kts | 47° |
| 2026-04-27 19:06 | 53.47810 | -2.37601 | 556 ft | 79 kts | 292° |
| 2026-04-27 19:06 | 53.47741 | -2.38530 | 475 ft | 82 kts | 260° |
| 2026-04-27 19:06 | 53.47583 | -2.39484 | 490 ft | 92 kts | 254° |
| 2026-04-27 19:06 | 53.47501 | -2.40600 | 536 ft | 96 kts | 277° |
| 2026-04-27 19:07 | 53.47545 | -2.41645 | 729 ft | 92 kts | 270° |
| 2026-04-27 19:07 | 53.47404 | -2.42672 | 859 ft | 90 kts | 230° |
| 2026-04-27 19:07 | 53.46871 | -2.42717 | 1057 ft | 73 kts | 149° |
| 2026-04-27 19:07 | 53.46572 | -2.42086 | 1007 ft | 80 kts | 70° |
| 2026-04-27 19:08 | 53.46881 | -2.41252 | 681 ft | 82 kts | 64° |
| 2026-04-27 19:08 | 53.47042 | -2.40404 | 370 ft | 73 kts | 76° |
| 2026-04-27 19:08 | 53.47115 | -2.39578 | 100 ft | 67 kts | 82° |
| 2026-04-27 19:08 | 53.47154 | -2.39026 | 73 ft | 16 kts | 86° |
| 2026-04-27 19:09 | 53.47154 | -2.39009 | 73 ft | 0 kts | 86° |
| 2026-04-27 19:09 | 53.47155 | -2.39002 | 74 ft | 2 kts | 79° |
| 2026-04-27 19:09 | 53.47158 | -2.38945 | 74 ft | 4 kts | 110° |
| 2026-04-27 19:09 | 53.47097 | -2.38874 | 74 ft | 14 kts | 143° |
| 2026-04-27 19:10 | 53.47065 | -2.38812 | 71 ft | 0 kts | 37° |
| 2026-04-27 19:13 | 53.47066 | -2.38812 | 72 ft | 1 kts | 37° |
| 2026-04-27 19:13 | 53.47069 | -2.38810 | 72 ft | 1 kts | 10° |
| 2026-04-27 19:13 | 53.47074 | -2.38809 | 73 ft | 1 kts | 10° |
| 2026-04-27 19:13 | 53.47091 | -2.38803 | 74 ft | 5 kts | 11° |
| 2026-04-27 19:14 | 53.47112 | -2.38772 | 75 ft | 5 kts | 52° |
| 2026-04-27 19:14 | 53.47120 | -2.38703 | 75 ft | 8 kts | 116° |
| 2026-04-27 19:14 | 53.47085 | -2.38636 | 74 ft | 7 kts | 57° |
| 2026-04-27 19:14 | 53.47093 | -2.38590 | 73 ft | 2 kts | 73° |
| 2026-04-27 19:15 | 53.47094 | -2.38583 | 74 ft | 2 kts | 74° |
| 2026-04-27 19:15 | 53.47116 | -2.38477 | 79 ft | 12 kts | 42° |
| 2026-04-27 19:15 | 53.47094 | -2.38461 | 72 ft | 10 kts | 124° |
| 2026-04-27 19:15 | 53.47103 | -2.38455 | 76 ft | 0 kts | 313° |
| 2026-04-27 19:17 | 53.47111 | -2.38472 | 78 ft | 8 kts | 279° |
| 2026-04-27 19:17 | 53.47131 | -2.38692 | 72 ft | 18 kts | 261° |
| 2026-04-27 19:17 | 53.47118 | -2.38871 | 74 ft | 13 kts | 265° |
| 2026-04-27 19:18 | 53.47089 | -2.39048 | 72 ft | 18 kts | 253° |
| 2026-04-27 19:18 | 53.47076 | -2.39192 | 68 ft | 12 kts | 296° |
| 2026-04-27 19:18 | 53.47084 | -2.39362 | 71 ft | 12 kts | 265° |
| 2026-04-27 19:18 | 53.47083 | -2.39401 | 73 ft | 0 kts | 275° |
| 2026-04-27 19:29 | 53.47088 | -2.39419 | 68 ft | 12 kts | 324° |
| 2026-04-27 19:30 | 53.47130 | -2.39326 | 69 ft | 25 kts | 81° |
| 2026-04-27 19:30 | 53.47171 | -2.38778 | 125 ft | 59 kts | 85° |
| 2026-04-27 19:30 | 53.47225 | -2.38114 | 411 ft | 58 kts | 71° |
| 2026-04-27 19:30 | 53.47599 | -2.37990 | 857 ft | 29 kts | 354° |
| 2026-04-27 19:31 | 53.48046 | -2.38152 | 778 ft | 89 kts | 357° |
| 2026-04-27 19:31 | 53.48647 | -2.38572 | 969 ft | 102 kts | 321° |
| 2026-04-27 19:31 | 53.49087 | -2.39491 | 1297 ft | 98 kts | 313° |
| 2026-04-27 19:31 | 53.49473 | -2.40451 | 1614 ft | 95 kts | 309° |
| 2026-04-27 19:32 | 53.49809 | -2.41403 | 1877 ft | 98 kts | 307° |
| 2026-04-27 19:32 | 53.50148 | -2.42415 | 2130 ft | 100 kts | 306° |
| 2026-04-27 19:32 | 53.50489 | -2.43502 | 2290 ft | 110 kts | 307° |
| 2026-04-27 19:32 | 53.50860 | -2.44654 | 2491 ft | 113 kts | 304° |
| 2026-04-27 19:33 | 53.51200 | -2.45830 | 2715 ft | 116 kts | 303° |
| 2026-04-27 19:33 | 53.51415 | -2.46677 | 2812 ft | 122 kts | 297° |
| 2026-04-27 19:33 | 53.51729 | -2.48657 | 2705 ft | 149 kts | 287° |
| 2026-04-27 19:33 | 53.51932 | -2.50433 | 2567 ft | 159 kts | 284° |
| 2026-04-27 19:34 | 53.52096 | -2.52254 | 2532 ft | 151 kts | 282° |
| 2026-04-27 19:34 | 53.52231 | -2.53991 | 2554 ft | 151 kts | 283° |
| 2026-04-27 19:34 | 53.52439 | -2.55749 | 2468 ft | 154 kts | 289° |
| 2026-04-27 19:34 | 53.52764 | -2.57431 | 2495 ft | 148 kts | 297° |
| 2026-04-27 19:35 | 53.53190 | -2.58992 | 2501 ft | 145 kts | 303° |
| 2026-04-27 19:35 | 53.53687 | -2.60417 | 2579 ft | 139 kts | 308° |
| 2026-04-27 19:35 | 53.54178 | -2.61887 | 2466 ft | 147 kts | 304° |
| 2026-04-27 19:35 | 53.54666 | -2.63342 | 2460 ft | 139 kts | 304° |
| 2026-04-27 19:36 | 53.55123 | -2.64687 | 2328 ft | 128 kts | 306° |
| 2026-04-27 19:36 | 53.55587 | -2.65943 | 2162 ft | 123 kts | 309° |
| 2026-04-27 19:36 | 53.56038 | -2.67130 | 2116 ft | 118 kts | 308° |
| 2026-04-27 19:36 | 53.56454 | -2.68239 | 2185 ft | 110 kts | 309° |
| 2026-04-27 19:37 | 53.56840 | -2.69267 | 2343 ft | 98 kts | 310° |
| 2026-04-27 19:37 | 53.57323 | -2.70231 | 2230 ft | 103 kts | 323° |
| 2026-04-27 19:37 | 53.57838 | -2.71045 | 2364 ft | 92 kts | 328° |
| 2026-04-27 19:37 | 53.58290 | -2.71441 | 2502 ft | 79 kts | 356° |
| 2026-04-27 19:38 | 53.59044 | -2.71314 | 1935 ft | 120 kts | 21° |
| 2026-04-27 19:38 | 53.59765 | -2.70540 | 1632 ft | 127 kts | 47° |
| 2026-04-27 19:38 | 53.60158 | -2.69243 | 1424 ft | 127 kts | 73° |
| 2026-04-27 19:38 | 53.60678 | -2.68132 | 1180 ft | 126 kts | 20° |
| 2026-04-27 19:39 | 53.61508 | -2.68107 | 1227 ft | 108 kts | 357° |
| 2026-04-27 19:39 | 53.62152 | -2.68214 | 1575 ft | 78 kts | 358° |
| 2026-04-27 19:39 | 53.62619 | -2.68321 | 1897 ft | 60 kts | 358° |
| 2026-04-27 19:39 | 53.62994 | -2.68438 | 2173 ft | 53 kts | 358° |
| 2026-04-27 19:40 | 53.63334 | -2.68564 | 2368 ft | 49 kts | 358° |
| 2026-04-27 19:40 | 53.63755 | -2.68705 | 2420 ft | 75 kts | 358° |
| 2026-04-27 19:40 | 53.64358 | -2.68864 | 2466 ft | 99 kts | 357° |
| 2026-04-27 19:40 | 53.64844 | -2.68972 | 2454 ft | 114 kts | 358° |
| 2026-04-27 19:41 | 53.65979 | -2.69202 | 2421 ft | 130 kts | 358° |
| 2026-04-27 19:41 | 53.66904 | -2.69391 | 2414 ft | 136 kts | 358° |
| 2026-04-27 19:41 | 53.67529 | -2.69518 | 2413 ft | 137 kts | 358° |
| 2026-04-27 19:41 | 53.68477 | -2.69715 | 2412 ft | 137 kts | 357° |
| 2026-04-27 19:42 | 53.69425 | -2.69908 | 2413 ft | 137 kts | 358° |
| 2026-04-27 19:42 | 53.70375 | -2.70102 | 2413 ft | 137 kts | 358° |
| 2026-04-27 19:42 | 53.71327 | -2.70298 | 2407 ft | 138 kts | 358° |
| 2026-04-27 19:42 | 53.72275 | -2.70492 | 2403 ft | 138 kts | 358° |
| 2026-04-27 19:43 | 53.73236 | -2.70690 | 2408 ft | 139 kts | 357° |
| 2026-04-27 19:43 | 53.74197 | -2.70891 | 2411 ft | 139 kts | 357° |
| 2026-04-27 19:43 | 53.75162 | -2.71091 | 2409 ft | 139 kts | 357° |
| 2026-04-27 19:43 | 53.76109 | -2.71290 | 2407 ft | 138 kts | 357° |
| 2026-04-27 19:44 | 53.77066 | -2.71491 | 2407 ft | 138 kts | 357° |
| 2026-04-27 19:44 | 53.78028 | -2.71686 | 2407 ft | 139 kts | 357° |
| 2026-04-27 19:44 | 53.78993 | -2.71876 | 2407 ft | 140 kts | 358° |
| 2026-04-27 19:44 | 53.79958 | -2.72071 | 2407 ft | 139 kts | 358° |
| 2026-04-27 19:45 | 53.80908 | -2.72268 | 2405 ft | 139 kts | 357° |
| 2026-04-27 19:45 | 53.81872 | -2.72470 | 2404 ft | 139 kts | 357° |
| 2026-04-27 19:45 | 53.82833 | -2.72675 | 2405 ft | 139 kts | 357° |
| 2026-04-27 19:45 | 53.83800 | -2.72884 | 2404 ft | 140 kts | 357° |
| 2026-04-27 19:46 | 53.84766 | -2.73094 | 2403 ft | 140 kts | 357° |
| 2026-04-27 19:46 | 53.85720 | -2.73302 | 2404 ft | 139 kts | 357° |
| 2026-04-27 19:46 | 53.86681 | -2.73506 | 2404 ft | 139 kts | 358° |
| 2026-04-27 19:46 | 53.87635 | -2.73726 | 2405 ft | 138 kts | 357° |
| 2026-04-27 19:47 | 53.88583 | -2.73931 | 2402 ft | 138 kts | 358° |
| 2026-04-27 19:47 | 53.89538 | -2.74132 | 2402 ft | 138 kts | 357° |
| 2026-04-27 19:47 | 53.90491 | -2.74329 | 2403 ft | 138 kts | 357° |
| 2026-04-27 19:47 | 53.91444 | -2.74530 | 2399 ft | 138 kts | 358° |
| 2026-04-27 19:48 | 53.92399 | -2.74753 | 2399 ft | 135 kts | 346° |
| 2026-04-27 19:48 | 53.93299 | -2.74948 | 2385 ft | 127 kts | 359° |
| 2026-04-27 19:48 | 53.94162 | -2.75147 | 2485 ft | 126 kts | 355° |
| 2026-04-27 19:48 | 53.94965 | -2.75477 | 2603 ft | 102 kts | 347° |
| 2026-04-27 19:49 | 53.95598 | -2.75904 | 2111 ft | 125 kts | 347° |
| 2026-04-27 19:49 | 53.96530 | -2.76425 | 2109 ft | 126 kts | 344° |
| 2026-04-27 19:49 | 53.97333 | -2.76962 | 2050 ft | 121 kts | 343° |
| 2026-04-27 19:49 | 53.97806 | -2.77338 | 2478 ft | 86 kts | 346° |
| 2026-04-27 19:50 | 53.98515 | -2.77805 | 2250 ft | 130 kts | 346° |
| 2026-04-27 19:50 | 53.99415 | -2.78288 | 2245 ft | 135 kts | 351° |
| 2026-04-27 19:50 | 54.00317 | -2.78646 | 2372 ft | 130 kts | 352° |
| 2026-04-27 19:50 | 54.01205 | -2.78853 | 2452 ft | 131 kts | 3° |
| 2026-04-27 19:51 | 54.02015 | -2.79269 | 2716 ft | 122 kts | 315° |
| 2026-04-27 19:51 | 54.01927 | -2.80742 | 2459 ft | 162 kts | 225° |
| 2026-04-27 19:51 | 54.00854 | -2.81171 | 2389 ft | 153 kts | 175° |
| 2026-04-27 19:51 | 53.99817 | -2.81106 | 2466 ft | 149 kts | 172° |
| 2026-04-27 19:52 | 53.98798 | -2.80948 | 2546 ft | 147 kts | 171° |
| 2026-04-27 19:52 | 53.97770 | -2.80835 | 2581 ft | 149 kts | 170° |
| 2026-04-27 19:52 | 53.96737 | -2.80596 | 2572 ft | 150 kts | 163° |
| 2026-04-27 19:52 | 53.95784 | -2.79957 | 2643 ft | 144 kts | 148° |
| 2026-04-27 19:53 | 53.94038 | -2.78289 | 2781 ft | 137 kts | 141° |
| 2026-04-27 19:53 | 53.93262 | -2.77315 | 2758 ft | 141 kts | 135° |
| 2026-04-27 19:53 | 53.92527 | -2.76190 | 2746 ft | 142 kts | 130° |
| 2026-04-27 19:54 | 53.91793 | -2.75106 | 2846 ft | 139 kts | 136° |
| 2026-04-27 19:54 | 53.91026 | -2.74082 | 2845 ft | 143 kts | 136° |
| 2026-04-27 19:54 | 53.90175 | -2.73149 | 2842 ft | 146 kts | 147° |
| 2026-04-27 19:54 | 53.89286 | -2.72389 | 2928 ft | 143 kts | 150° |
| 2026-04-27 19:55 | 53.88318 | -2.71865 | 2892 ft | 150 kts | 162° |
| 2026-04-27 19:55 | 53.87287 | -2.71485 | 2896 ft | 150 kts | 167° |
| 2026-04-27 19:55 | 53.86261 | -2.71312 | 2989 ft | 147 kts | 170° |
| 2026-04-27 19:55 | 53.85229 | -2.71224 | 2907 ft | 156 kts | 175° |
| 2026-04-27 19:56 | 53.84148 | -2.71267 | 2974 ft | 151 kts | 180° |
| 2026-04-27 19:56 | 53.83089 | -2.71485 | 2959 ft | 155 kts | 188° |
| 2026-04-27 19:56 | 53.82080 | -2.72127 | 3010 ft | 156 kts | 210° |
| 2026-04-27 19:56 | 53.81307 | -2.73452 | 2959 ft | 161 kts | 240° |
| 2026-04-27 19:57 | 53.81049 | -2.75233 | 2954 ft | 156 kts | 276° |
| 2026-04-27 19:57 | 53.80664 | -2.76578 | 2788 ft | 155 kts | 183° |
| 2026-04-27 19:57 | 53.79583 | -2.76153 | 2473 ft | 156 kts | 155° |
| 2026-04-27 19:57 | 53.78676 | -2.75468 | 2769 ft | 136 kts | 152° |
| 2026-04-27 19:58 | 53.77723 | -2.75026 | 2682 ft | 152 kts | 168° |
| 2026-04-27 19:58 | 53.76618 | -2.75216 | 2534 ft | 163 kts | 196° |
| 2026-04-27 19:58 | 53.75598 | -2.75754 | 2560 ft | 153 kts | 194° |
| 2026-04-27 19:58 | 53.74615 | -2.76316 | 2742 ft | 146 kts | 199° |
| 2026-04-27 19:59 | 53.73700 | -2.77220 | 2666 ft | 158 kts | 219° |
| 2026-04-27 19:59 | 53.72884 | -2.78401 | 2756 ft | 152 kts | 216° |
| 2026-04-27 19:59 | 53.71990 | -2.79248 | 2919 ft | 142 kts | 206° |
| 2026-04-27 19:59 | 53.71113 | -2.79998 | 3024 ft | 145 kts | 207° |
| 2026-04-27 20:00 | 53.70257 | -2.80874 | 3221 ft | 138 kts | 212° |
| 2026-04-27 20:00 | 53.69349 | -2.81713 | 3008 ft | 162 kts | 206° |
| 2026-04-27 20:00 | 53.68413 | -2.82708 | 3104 ft | 153 kts | 208° |
| 2026-04-27 20:00 | 53.67497 | -2.83635 | 3142 ft | 157 kts | 213° |
| 2026-04-27 20:01 | 53.66641 | -2.84795 | 3185 ft | 155 kts | 220° |
| 2026-04-27 20:01 | 53.65857 | -2.86013 | 3268 ft | 153 kts | 220° |
| 2026-04-27 20:01 | 53.64985 | -2.87008 | 3342 ft | 152 kts | 207° |
| 2026-04-27 20:01 | 53.64067 | -2.87939 | 3341 ft | 157 kts | 214° |
| 2026-04-27 20:02 | 53.63194 | -2.89050 | 3299 ft | 157 kts | 200° |
| 2026-04-27 20:02 | 53.62146 | -2.89397 | 3336 ft | 151 kts | 182° |
| 2026-04-27 20:02 | 53.61117 | -2.89406 | 3432 ft | 147 kts | 171° |
| 2026-04-27 20:02 | 53.60067 | -2.89345 | 3405 ft | 151 kts | 172° |
| 2026-04-27 20:03 | 53.59049 | -2.88957 | 3398 ft | 150 kts | 161° |
| 2026-04-27 20:03 | 53.58065 | -2.88531 | 3446 ft | 146 kts | 159° |
| 2026-04-27 20:03 | 53.57128 | -2.87979 | 3618 ft | 127 kts | 149° |
| 2026-04-27 20:03 | 53.56320 | -2.87199 | 3539 ft | 135 kts | 137° |
| 2026-04-27 20:04 | 53.55665 | -2.86362 | 3376 ft | 105 kts | 136° |
| 2026-04-27 20:04 | 53.55140 | -2.85739 | 3302 ft | 103 kts | 135° |
| 2026-04-27 20:04 | 53.54536 | -2.84741 | 3200 ft | 122 kts | 117° |
| 2026-04-27 20:04 | 53.54168 | -2.83397 | 3219 ft | 125 kts | 107° |
| 2026-04-27 20:05 | 53.53848 | -2.82064 | 3388 ft | 115 kts | 98° |
| 2026-04-27 20:05 | 53.53712 | -2.81189 | 4011 ft | 50 kts | 95° |
| 2026-04-27 20:05 | 53.53571 | -2.80172 | 3715 ft | 111 kts | 96° |
| 2026-04-27 20:05 | 53.53374 | -2.78775 | 3630 ft | 126 kts | 99° |
| 2026-04-27 20:06 | 53.53142 | -2.77293 | 3560 ft | 136 kts | 100° |
| 2026-04-27 20:06 | 53.53001 | -2.75797 | 3737 ft | 124 kts | 91° |
| 2026-04-27 20:06 | 53.52908 | -2.74403 | 3919 ft | 117 kts | 90° |
| 2026-04-27 20:06 | 53.52795 | -2.72978 | 3935 ft | 125 kts | 95° |
| 2026-04-27 20:07 | 53.52707 | -2.71545 | 4041 ft | 122 kts | 87° |
| 2026-04-27 20:07 | 53.52720 | -2.70143 | 4200 ft | 117 kts | 83° |
| 2026-04-27 20:07 | 53.52627 | -2.68688 | 4043 ft | 137 kts | 96° |
| 2026-04-27 20:07 | 53.52463 | -2.67192 | 4159 ft | 131 kts | 95° |
| 2026-04-27 20:08 | 53.52284 | -2.65666 | 4142 ft | 135 kts | 98° |
| 2026-04-27 20:08 | 53.51894 | -2.64219 | 4186 ft | 137 kts | 112° |
| 2026-04-27 20:08 | 53.51443 | -2.62804 | 4203 ft | 138 kts | 111° |
| 2026-04-27 20:08 | 53.51072 | -2.61307 | 4147 ft | 138 kts | 98° |
| 2026-04-27 20:09 | 53.50912 | -2.59701 | 4041 ft | 143 kts | 94° |
| 2026-04-27 20:09 | 53.50628 | -2.58103 | 3918 ft | 150 kts | 108° |
| 2026-04-27 20:09 | 53.50133 | -2.56460 | 3454 ft | 166 kts | 110° |
| 2026-04-27 20:09 | 53.49626 | -2.54668 | 2607 ft | 179 kts | 109° |
| 2026-04-27 20:10 | 53.49182 | -2.52961 | 2140 ft | 126 kts | 108° |
| 2026-04-27 20:10 | 53.48795 | -2.51777 | 1822 ft | 116 kts | 120° |
| 2026-04-27 20:10 | 53.48125 | -2.50872 | 1290 ft | 124 kts | 139° |
| 2026-04-27 20:10 | 53.47780 | -2.49873 | 1302 ft | 89 kts | 88° |
| 2026-04-27 20:11 | 53.47715 | -2.48880 | 1281 ft | 83 kts | 93° |
| 2026-04-27 20:11 | 53.47592 | -2.47875 | 1110 ft | 93 kts | 97° |
| 2026-04-27 20:11 | 53.47441 | -2.46837 | 1055 ft | 87 kts | 97° |
| 2026-04-27 20:11 | 53.47205 | -2.45930 | 1102 ft | 83 kts | 121° |
| 2026-04-27 20:12 | 53.46998 | -2.45047 | 1055 ft | 85 kts | 96° |
| 2026-04-27 20:12 | 53.46916 | -2.44378 | 994 ft | 91 kts | 98° |
| 2026-04-27 20:12 | 53.46835 | -2.42972 | 802 ft | 93 kts | 79° |
| 2026-04-27 20:12 | 53.46931 | -2.41921 | 690 ft | 89 kts | 78° |
| 2026-04-27 20:13 | 53.47009 | -2.40864 | 468 ft | 92 kts | 83° |
| 2026-04-27 20:13 | 53.47100 | -2.39793 | 220 ft | 84 kts | 79° |
| 2026-04-27 20:13 | 53.47163 | -2.38934 | 75 ft | 51 kts | 88° |
| 2026-04-27 20:13 | 53.47179 | -2.38720 | 76 ft | 0 kts | 92° |
| 2026-04-27 20:14 | 53.47088 | -2.38681 | 69 ft | 5 kts | 289° |
| 2026-04-27 20:14 | 53.47119 | -2.38696 | 76 ft | 0 kts | 356° |